Time;durP1;ratioP1;P1;durP2;ratioP2;P2;SDS_P1;SDS_P2;PMS_P1;PMS_P2;Temp;Humidity;BMP_temperature;BMP_pressure;BME280_temperature;BME280_humidity;BME280_pressure;Samples;Min_cycle;Max_cycle;Signal;HPM_P1;HPM_P2
2022/12/23 00:00:15;;;;;;;6.78;6.30;;;;;;;;;;4973215;28;20038;-70
2022/12/23 00:02:41;;;;;;;7.22;6.63;;;;;;;;;;4970787;28;20041;-70
2022/12/23 00:05:07;;;;;;;7.22;6.65;;;;;;;;;;4967940;28;20034;-70
2022/12/23 00:07:33;;;;;;;6.95;6.38;;;;;;;;;;4966445;28;20038;-69
2022/12/23 00:09:59;;;;;;;6.70;6.30;;;;;;;;;;4968754;28;20041;-69
2022/12/23 00:15:09;;;;;;;6.63;6.00;;;;;;;;;;4963951;28;20034;-70
2022/12/23 00:17:39;;;;;;;6.57;6.07;;;;;;;;;;4974776;28;20045;-70
2022/12/23 00:20:06;;;;;;;6.43;6.07;;;;;;;;;;4968663;28;20046;-69
2022/12/23 00:25:16;;;;;;;5.97;5.68;;;;;;;;;;4965919;28;20050;-70
2022/12/23 00:28:00;;;;;;;6.35;5.85;;;;;;;;;;4965832;28;20038;-70
2022/12/23 00:30:27;;;;;;;6.13;5.72;;;;;;;;;;4966331;28;20039;-69
2022/12/23 00:32:53;;;;;;;5.90;5.60;;;;;;;;;;4961699;28;20043;-70
2022/12/23 00:35:18;;;;;;;6.43;6.13;;;;;;;;;;4967102;28;20038;-71
2022/12/23 00:37:44;;;;;;;6.40;6.05;;;;;;;;;;4968508;28;20054;-68
2022/12/23 00:42:58;;;;;;;6.50;6.10;;;;;;;;;;4968962;28;20034;-68
2022/12/23 00:45:24;;;;;;;6.72;6.32;;;;;;;;;;4970990;28;20086;-69
2022/12/23 00:50:36;;;;;;;6.30;5.88;;;;;;;;;;4963731;28;20089;-68
2022/12/23 00:53:02;;;;;;;6.10;5.80;;;;;;;;;;4963531;28;20045;-69
2022/12/23 00:55:27;;;;;;;6.78;6.28;;;;;;;;;;4969813;28;20138;-68
2022/12/23 00:57:53;;;;;;;6.57;6.28;;;;;;;;;;4961657;28;20102;-70
2022/12/23 01:00:19;;;;;;;6.72;6.03;;;;;;;;;;4962962;28;20066;-68
2022/12/23 01:05:38;;;;;;;5.78;5.47;;;;;;;;;;4970218;28;20031;-70
2022/12/23 01:08:09;;;;;;;6.50;6.05;;;;;;;;;;4961532;28;20043;-70
2022/12/23 01:10:35;;;;;;;6.20;5.90;;;;;;;;;;4983856;28;20170;-69
2022/12/23 01:13:01;;;;;;;5.93;5.63;;;;;;;;;;4961691;28;20066;-69
2022/12/23 01:15:27;;;;;;;6.38;5.97;;;;;;;;;;4959653;28;20035;-70
2022/12/23 01:17:52;;;;;;;6.10;5.80;;;;;;;;;;4964976;28;20045;-70
2022/12/23 01:20:19;;;;;;;6.45;5.85;;;;;;;;;;4971847;28;20031;-70
2022/12/23 01:22:44;;;;;;;6.30;6.00;;;;;;;;;;4975023;28;20125;-70
2022/12/23 01:25:10;;;;;;;6.60;6.20;;;;;;;;;;4978310;28;20113;-70
2022/12/23 01:27:36;;;;;;;6.57;6.15;;;;;;;;;;4974986;28;20039;-69
2022/12/23 01:30:02;;;;;;;6.20;5.80;;;;;;;;;;4971986;28;20042;-70
2022/12/23 01:32:28;;;;;;;6.20;5.88;;;;;;;;;;4974314;28;20144;-70
2022/12/23 01:34:53;;;;;;;6.30;5.97;;;;;;;;;;4979605;28;20514;-69
2022/12/23 01:37:19;;;;;;;6.53;6.18;;;;;;;;;;4975928;28;20508;-70
2022/12/23 01:39:45;;;;;;;6.70;6.20;;;;;;;;;;4974405;28;20034;-70
2022/12/23 01:45:04;;;;;;;6.15;5.82;;;;;;;;;;4972341;28;20035;-70
2022/12/23 01:47:37;;;;;;;6.22;5.93;;;;;;;;;;4971068;28;20065;-69
2022/12/23 01:50:27;;;;;;;7.13;6.55;;;;;;;;;;4968197;28;20034;-70
2022/12/23 01:53:06;;;;;;;6.22;5.93;;;;;;;;;;4971231;28;20070;-70
2022/12/23 01:55:58;;;;;;;5.95;5.65;;;;;;;;;;4967999;28;20118;-69
2022/12/23 01:58:29;;;;;;;5.90;5.60;;;;;;;;;;4961282;28;20043;-70
2022/12/23 02:03:41;;;;;;;6.55;5.70;;;;;;;;;;4971791;28;20055;-69
2022/12/23 02:11:59;;;;;;;6.32;6.03;;;;;;;;;;4973034;28;20054;-70
2022/12/23 02:18:05;;;;;;;6.10;5.80;;;;;;;;;;4960362;28;20517;-71
2022/12/23 02:21:00;;;;;;;6.63;6.32;;;;;;;;;;4978966;28;20665;-68
2022/12/23 02:23:32;;;;;;;6.13;5.75;;;;;;;;;;4971163;28;20050;-68
2022/12/23 02:26:35;;;;;;;6.15;5.85;;;;;;;;;;4966640;28;20039;-69
2022/12/23 02:29:38;;;;;;;6.38;6.07;;;;;;;;;;4977473;28;20035;-69
2022/12/23 02:32:14;;;;;;;6.47;6.07;;;;;;;;;;4967608;28;20030;-70
2022/12/23 02:34:55;;;;;;;6.45;6.10;;;;;;;;;;4971055;28;20133;-69
2022/12/23 02:37:33;;;;;;;6.63;6.13;;;;;;;;;;4982025;28;20088;-70
2022/12/23 02:40:28;;;;;;;6.43;6.10;;;;;;;;;;4967120;28;20530;-69
2022/12/23 02:43:03;;;;;;;5.95;5.65;;;;;;;;;;4968900;28;20787;-70
2022/12/23 02:45:46;;;;;;;6.22;5.93;;;;;;;;;;4974611;28;20106;-70
2022/12/23 02:48:21;;;;;;;6.43;6.13;;;;;;;;;;4972516;28;20031;-69
2022/12/23 02:50:49;;;;;;;6.50;6.10;;;;;;;;;;4967444;28;20438;-69
2022/12/23 02:53:27;;;;;;;6.45;6.15;;;;;;;;;;4976051;28;20030;-69
2022/12/23 02:55:55;;;;;;;6.20;5.90;;;;;;;;;;4955480;28;20418;-69
2022/12/23 02:58:26;;;;;;;6.65;6.10;;;;;;;;;;4966927;28;20042;-70
2022/12/23 03:00:52;;;;;;;6.43;5.93;;;;;;;;;;4966965;28;20406;-70
2022/12/23 03:03:19;;;;;;;6.53;6.22;;;;;;;;;;4980413;28;20034;-69
2022/12/23 03:05:47;;;;;;;6.32;5.93;;;;;;;;;;4964262;28;20035;-69
2022/12/23 03:08:18;;;;;;;6.47;6.15;;;;;;;;;;4955886;28;20045;-69
2022/12/23 03:11:06;;;;;;;6.15;5.85;;;;;;;;;;4971130;28;20023;-69
2022/12/23 03:13:47;;;;;;;6.32;6.03;;;;;;;;;;4967862;28;20650;-70
2022/12/23 03:16:43;;;;;;;6.35;6.03;;;;;;;;;;4980346;28;20081;-70
2022/12/23 03:19:38;;;;;;;7.13;6.50;;;;;;;;;;4972118;28;20410;-70
2022/12/23 03:22:31;;;;;;;5.82;5.53;;;;;;;;;;4966778;28;20038;-70
2022/12/23 03:25:17;;;;;;;6.22;5.93;;;;;;;;;;4973391;28;20450;-70
2022/12/23 03:28:08;;;;;;;7.20;6.60;;;;;;;;;;4960856;28;20047;-70
2022/12/23 03:30:36;;;;;;;6.60;6.30;;;;;;;;;;4960446;28;20034;-70
2022/12/23 03:33:14;;;;;;;6.40;6.00;;;;;;;;;;4964175;28;20097;-70
2022/12/23 03:35:56;;;;;;;6.97;6.57;;;;;;;;;;4969455;28;20393;-70
2022/12/23 03:38:22;;;;;;;6.53;6.03;;;;;;;;;;4985845;28;20034;-69
2022/12/23 03:40:58;;;;;;;6.40;6.10;;;;;;;;;;4961479;28;20050;-69
2022/12/23 03:43:31;;;;;;;6.63;6.32;;;;;;;;;;4968213;28;20039;-69
2022/12/23 03:46:01;;;;;;;6.30;6.00;;;;;;;;;;4968715;28;20041;-70
2022/12/23 03:48:38;;;;;;;6.50;6.00;;;;;;;;;;4976822;28;20237;-70
2022/12/23 03:51:12;;;;;;;7.63;6.13;;;;;;;;;;4961606;28;20058;-70
2022/12/23 03:53:44;;;;;;;6.60;6.30;;;;;;;;;;4973940;28;20076;-70
2022/12/23 03:56:15;;;;;;;6.90;6.45;;;;;;;;;;4978608;28;20085;-70
2022/12/23 03:58:53;;;;;;;7.35;6.53;;;;;;;;;;4968583;28;20454;-70
2022/12/23 04:01:24;;;;;;;6.97;6.57;;;;;;;;;;4970347;28;20054;-70
2022/12/23 04:04:10;;;;;;;6.38;5.97;;;;;;;;;;4970930;28;20117;-70
2022/12/23 04:06:43;;;;;;;6.68;6.28;;;;;;;;;;4973142;28;20663;-70
2022/12/23 04:09:10;;;;;;;6.10;5.70;;;;;;;;;;4963459;28;20039;-70
2022/12/23 04:11:36;;;;;;;6.53;5.82;;;;;;;;;;4970630;28;20084;-70
2022/12/23 04:14:02;;;;;;;6.35;6.00;;;;;;;;;;4966449;28;20107;-70
2022/12/23 04:16:28;;;;;;;6.00;5.70;;;;;;;;;;4972771;28;20465;-70
2022/12/23 04:18:54;;;;;;;5.93;5.63;;;;;;;;;;4970342;28;20046;-70
2022/12/23 04:21:19;;;;;;;6.40;6.00;;;;;;;;;;4974087;28;20427;-69
2022/12/23 04:23:45;;;;;;;6.57;6.18;;;;;;;;;;4976530;28;20041;-69
2022/12/23 04:26:11;;;;;;;6.40;6.00;;;;;;;;;;4966285;28;20031;-70
2022/12/23 04:28:36;;;;;;;6.88;6.47;;;;;;;;;;4968935;28;20482;-70
2022/12/23 04:31:02;;;;;;;6.80;6.40;;;;;;;;;;4967836;28;20028;-69
2022/12/23 04:33:27;;;;;;;6.68;6.28;;;;;;;;;;4970827;28;20035;-70
2022/12/23 04:35:53;;;;;;;6.53;6.22;;;;;;;;;;4975604;28;20535;-69
2022/12/23 04:38:18;;;;;;;6.45;6.15;;;;;;;;;;4967828;28;20030;-69
2022/12/23 04:40:45;;;;;;;6.50;6.15;;;;;;;;;;4963596;28;20049;-70
2022/12/23 04:43:11;;;;;;;6.88;6.55;;;;;;;;;;4966701;28;20117;-69
2022/12/23 04:45:37;;;;;;;6.60;6.30;;;;;;;;;;4971988;28;20131;-69
2022/12/23 04:48:02;;;;;;;6.57;6.20;;;;;;;;;;4975050;28;20030;-70
2022/12/23 04:50:28;;;;;;;6.30;6.00;;;;;;;;;;4968454;28;20042;-70
2022/12/23 04:52:54;;;;;;;6.20;5.90;;;;;;;;;;4963922;28;20034;-70
2022/12/23 04:55:19;;;;;;;6.70;6.32;;;;;;;;;;4965730;28;20529;-69
2022/12/23 04:57:45;;;;;;;6.97;6.45;;;;;;;;;;4973128;28;20031;-69
2022/12/23 05:00:11;;;;;;;7.18;6.68;;;;;;;;;;4964852;28;20380;-69
2022/12/23 05:02:36;;;;;;;6.68;6.35;;;;;;;;;;4964380;28;20058;-69
2022/12/23 05:05:03;;;;;;;6.47;6.07;;;;;;;;;;4970504;28;20038;-69
2022/12/23 05:07:29;;;;;;;6.80;6.30;;;;;;;;;;4969134;28;20038;-70
2022/12/23 05:09:56;;;;;;;6.68;6.28;;;;;;;;;;4968908;28;20034;-70
2022/12/23 05:12:22;;;;;;;6.90;6.40;;;;;;;;;;4969883;28;20034;-70
2022/12/23 05:14:47;;;;;;;6.90;6.50;;;;;;;;;;4978885;28;20039;-70
2022/12/23 05:17:13;;;;;;;6.97;6.40;;;;;;;;;;4960117;28;20050;-70
2022/12/23 05:19:38;;;;;;;6.97;6.57;;;;;;;;;;4968067;28;20093;-70
2022/12/23 05:22:04;;;;;;;7.25;6.70;;;;;;;;;;4968825;28;20089;-70
2022/12/23 05:24:29;;;;;;;7.28;6.57;;;;;;;;;;4969130;28;20050;-70
2022/12/23 05:26:55;;;;;;;7.22;6.72;;;;;;;;;;4961726;28;20141;-70
2022/12/23 05:29:20;;;;;;;6.63;6.22;;;;;;;;;;4958323;28;20119;-70
2022/12/23 05:31:46;;;;;;;7.40;6.90;;;;;;;;;;4971898;28;20062;-69
2022/12/23 05:34:11;;;;;;;6.95;6.55;;;;;;;;;;4965059;28;20114;-70
2022/12/23 05:36:37;;;;;;;7.05;6.40;;;;;;;;;;4968429;28;20041;-70
2022/12/23 05:39:03;;;;;;;6.65;6.25;;;;;;;;;;4975686;28;20050;-70
2022/12/23 05:41:28;;;;;;;11.20;6.53;;;;;;;;;;4972047;28;20030;-70
2022/12/23 05:43:54;;;;;;;6.65;6.20;;;;;;;;;;4966822;28;20139;-70
2022/12/23 05:46:19;;;;;;;6.93;6.43;;;;;;;;;;4974702;28;20046;-70
2022/12/23 05:48:45;;;;;;;6.20;5.80;;;;;;;;;;4975714;28;20125;-71
2022/12/23 05:51:10;;;;;;;6.90;6.50;;;;;;;;;;4976673;28;20107;-70
2022/12/23 05:53:36;;;;;;;7.05;6.45;;;;;;;;;;4964384;28;20043;-71
2022/12/23 05:56:03;;;;;;;6.65;6.28;;;;;;;;;;4962848;28;20061;-70
2022/12/23 05:58:29;;;;;;;6.93;6.53;;;;;;;;;;4969545;28;20552;-70
2022/12/23 06:00:54;;;;;;;6.65;6.25;;;;;;;;;;4984156;28;20026;-70
2022/12/23 06:03:20;;;;;;;7.35;6.57;;;;;;;;;;4964005;28;20046;-70
2022/12/23 06:05:49;;;;;;;7.65;7.00;;;;;;;;;;4975511;28;20506;-70
2022/12/23 06:08:15;;;;;;;7.20;6.80;;;;;;;;;;4976613;28;20035;-71
2022/12/23 06:10:40;;;;;;;9.50;8.70;;;;;;;;;;4974361;28;20671;-71
2022/12/23 06:13:06;;;;;;;7.53;7.03;;;;;;;;;;4969990;28;20031;-71
2022/12/23 06:15:31;;;;;;;6.90;6.50;;;;;;;;;;4972547;28;20502;-71
2022/12/23 06:17:57;;;;;;;6.95;6.50;;;;;;;;;;4981774;28;20077;-71
2022/12/23 06:20:22;;;;;;;7.18;6.70;;;;;;;;;;4970864;28;20030;-71
2022/12/23 06:22:48;;;;;;;7.85;7.15;;;;;;;;;;4972107;28;20036;-71
2022/12/23 06:25:14;;;;;;;7.68;7.00;;;;;;;;;;4974469;28;20062;-71
2022/12/23 06:27:39;;;;;;;8.30;7.60;;;;;;;;;;4972770;28;20041;-70
2022/12/23 06:30:06;;;;;;;9.63;8.15;;;;;;;;;;4969464;28;20026;-71
2022/12/23 06:32:31;;;;;;;8.20;7.70;;;;;;;;;;4978873;28;20030;-70
2022/12/23 06:34:57;;;;;;;8.23;7.60;;;;;;;;;;4970399;28;20122;-70
2022/12/23 06:37:22;;;;;;;7.90;7.30;;;;;;;;;;4974689;28;20421;-69
2022/12/23 06:39:48;;;;;;;8.55;7.78;;;;;;;;;;4978940;28;20482;-70
2022/12/23 06:42:14;;;;;;;8.52;7.88;;;;;;;;;;4976422;28;20071;-70
2022/12/23 06:44:39;;;;;;;9.40;8.70;;;;;;;;;;4966433;28;20043;-70
2022/12/23 06:47:05;;;;;;;9.73;9.00;;;;;;;;;;4973604;28;20034;-70
2022/12/23 06:49:30;;;;;;;11.10;10.10;;;;;;;;;;4973885;28;20031;-70
2022/12/23 06:51:56;;;;;;;8.98;8.10;;;;;;;;;;4977820;28;20085;-70
2022/12/23 06:54:21;;;;;;;9.00;8.30;;;;;;;;;;4968486;28;20722;-70
2022/12/23 06:56:47;;;;;;;9.70;8.65;;;;;;;;;;4975742;28;20038;-70
2022/12/23 06:59:13;;;;;;;10.60;8.25;;;;;;;;;;4972034;28;20065;-72
2022/12/23 07:01:39;;;;;;;16.60;8.75;;;;;;;;;;4969873;28;20066;-73
2022/12/23 07:04:05;;;;;;;8.52;8.02;;;;;;;;;;4966093;28;20042;-74
2022/12/23 07:06:31;;;;;;;8.65;7.95;;;;;;;;;;4967892;28;20421;-73
2022/12/23 07:08:56;;;;;;;9.60;8.70;;;;;;;;;;4969664;28;20093;-72
2022/12/23 07:11:22;;;;;;;8.98;7.90;;;;;;;;;;4966673;28;20443;-73
2022/12/23 07:13:48;;;;;;;8.60;8.00;;;;;;;;;;4965005;28;20034;-73
2022/12/23 07:16:13;;;;;;;9.00;8.50;;;;;;;;;;4972274;28;20484;-73
2022/12/23 07:18:39;;;;;;;9.20;8.60;;;;;;;;;;4968024;28;20042;-76
2022/12/23 07:21:05;;;;;;;8.90;8.30;;;;;;;;;;4964231;28;20058;-76
2022/12/23 07:23:30;;;;;;;8.27;7.57;;;;;;;;;;4972931;28;20070;-77
2022/12/23 07:25:56;;;;;;;8.75;8.25;;;;;;;;;;4979536;28;20042;-76
2022/12/23 07:28:22;;;;;;;10.18;9.38;;;;;;;;;;4966092;28;20037;-77
2022/12/23 07:30:48;;;;;;;8.93;8.32;;;;;;;;;;4964079;28;20045;-76
2022/12/23 07:33:14;;;;;;;8.88;8.27;;;;;;;;;;4974311;28;20026;-76
2022/12/23 07:35:42;;;;;;;8.50;7.90;;;;;;;;;;4969209;28;20235;-76
2022/12/23 07:38:08;;;;;;;10.57;8.18;;;;;;;;;;4981788;28;20651;-77
2022/12/23 07:40:34;;;;;;;9.75;8.95;;;;;;;;;;4968652;28;20047;-76
2022/12/23 07:43:01;;;;;;;8.80;8.10;;;;;;;;;;4968598;28;20602;-77
2022/12/23 07:45:28;;;;;;;9.68;8.98;;;;;;;;;;4973972;28;20034;-77
2022/12/23 07:47:55;;;;;;;9.90;9.00;;;;;;;;;;4967246;28;20556;-76
2022/12/23 07:50:22;;;;;;;11.02;10.23;;;;;;;;;;4965682;28;20039;-75
2022/12/23 07:52:47;;;;;;;10.05;9.25;;;;;;;;;;4972828;28;20074;-77
2022/12/23 07:55:13;;;;;;;9.98;9.18;;;;;;;;;;4976348;28;20073;-77
2022/12/23 07:57:39;;;;;;;10.15;9.35;;;;;;;;;;4968412;28;20042;-76
2022/12/23 08:00:10;;;;;;;10.00;9.30;;;;;;;;;;4967017;28;20097;-77
2022/12/23 08:02:39;;;;;;;9.35;8.65;;;;;;;;;;4971721;28;20039;-76
2022/12/23 08:05:06;;;;;;;9.07;8.35;;;;;;;;;;4965807;28;20038;-75
2022/12/23 08:07:31;;;;;;;10.93;9.73;;;;;;;;;;4967246;28;20138;-77
2022/12/23 08:09:57;;;;;;;9.85;9.05;;;;;;;;;;4974487;28;20129;-76
2022/12/23 08:12:24;;;;;;;9.90;9.00;;;;;;;;;;4970114;28;20100;-77
2022/12/23 08:14:51;;;;;;;9.48;8.68;;;;;;;;;;4969633;28;20035;-76
2022/12/23 08:17:20;;;;;;;10.88;9.35;;;;;;;;;;4965514;28;20042;-76
2022/12/23 08:19:49;;;;;;;12.57;9.73;;;;;;;;;;4978445;28;20039;-76
2022/12/23 08:22:15;;;;;;;10.40;8.55;;;;;;;;;;4971777;28;20151;-76
2022/12/23 08:24:40;;;;;;;10.18;8.27;;;;;;;;;;4968918;28;20110;-76
2022/12/23 08:27:06;;;;;;;12.57;9.13;;;;;;;;;;4973460;28;20062;-76
2022/12/23 08:29:31;;;;;;;11.35;10.20;;;;;;;;;;4975881;28;20034;-75
2022/12/23 08:31:57;;;;;;;9.63;8.68;;;;;;;;;;4965526;28;20119;-76
2022/12/23 08:34:22;;;;;;;8.73;8.02;;;;;;;;;;4961929;28;20061;-76
2022/12/23 08:36:48;;;;;;;10.00;8.30;;;;;;;;;;4969375;28;20026;-76
2022/12/23 08:39:14;;;;;;;9.80;9.10;;;;;;;;;;4973038;28;20038;-76
2022/12/23 08:41:43;;;;;;;11.20;9.15;;;;;;;;;;4976515;28;20030;-76
2022/12/23 08:44:09;;;;;;;9.93;8.98;;;;;;;;;;4966967;28;20045;-76
2022/12/23 08:46:36;;;;;;;10.57;9.55;;;;;;;;;;4968085;28;20042;-76
2022/12/23 08:49:02;;;;;;;9.95;8.95;;;;;;;;;;4972538;28;20113;-76
2022/12/23 08:51:28;;;;;;;13.68;12.27;;;;;;;;;;4972114;28;20034;-76
2022/12/23 08:53:56;;;;;;;11.25;10.25;;;;;;;;;;4964716;28;20057;-76
2022/12/23 08:56:24;;;;;;;14.47;9.80;;;;;;;;;;4968949;28;20074;-75
2022/12/23 08:58:52;;;;;;;10.40;9.45;;;;;;;;;;4973283;28;20043;-75
2022/12/23 09:01:19;;;;;;;20.60;11.65;;;;;;;;;;4967292;28;20498;-76
2022/12/23 09:03:45;;;;;;;16.08;14.45;;;;;;;;;;4968960;28;20043;-75
2022/12/23 09:06:15;;;;;;;18.58;14.70;;;;;;;;;;4971981;28;20028;-76
2022/12/23 09:08:41;;;;;;;19.70;14.75;;;;;;;;;;4968893;28;20038;-76
2022/12/23 09:11:15;;;;;;;11.93;10.82;;;;;;;;;;4969773;28;20038;-76
2022/12/23 09:13:41;;;;;;;16.10;11.43;;;;;;;;;;4966516;28;20042;-76
2022/12/23 09:16:07;;;;;;;15.98;13.02;;;;;;;;;;4970761;28;20039;-76
2022/12/23 09:18:33;;;;;;;13.18;11.45;;;;;;;;;;4966702;28;20754;-76
2022/12/23 09:21:01;;;;;;;16.65;13.35;;;;;;;;;;4967563;28;20377;-76
2022/12/23 09:23:27;;;;;;;12.00;10.73;;;;;;;;;;4970084;28;20047;-76
2022/12/23 09:25:54;;;;;;;11.15;10.25;;;;;;;;;;4971215;28;20042;-76
2022/12/23 09:28:20;;;;;;;11.18;10.25;;;;;;;;;;4966081;28;20042;-76
2022/12/23 09:30:45;;;;;;;11.60;10.40;;;;;;;;;;4962930;28;20038;-76
2022/12/23 09:33:11;;;;;;;12.88;11.65;;;;;;;;;;4973053;28;20030;-76
2022/12/23 09:35:37;;;;;;;14.80;10.35;;;;;;;;;;4964399;28;20035;-76
2022/12/23 09:38:02;;;;;;;9.27;8.57;;;;;;;;;;4962325;28;20035;-75
2022/12/23 09:40:31;;;;;;;9.00;8.27;;;;;;;;;;4971306;28;20406;-75
2022/12/23 09:43:06;;;;;;;9.30;8.50;;;;;;;;;;4968860;28;20062;-75
2022/12/23 09:45:49;;;;;;;9.23;8.27;;;;;;;;;;4946535;28;20588;-76
2022/12/23 09:48:24;;;;;;;9.35;8.60;;;;;;;;;;4963552;28;20043;-76
2022/12/23 09:50:50;;;;;;;9.52;8.70;;;;;;;;;;4967755;28;20031;-76
2022/12/23 09:53:19;;;;;;;8.77;8.18;;;;;;;;;;4971779;28;20035;-75
2022/12/23 09:56:06;;;;;;;8.95;8.25;;;;;;;;;;4978731;28;20043;-76
2022/12/23 09:59:04;;;;;;;9.82;9.00;;;;;;;;;;4969110;28;20031;-75
2022/12/23 10:01:43;;;;;;;9.07;8.48;;;;;;;;;;4968987;28;20093;-76
2022/12/23 10:04:09;;;;;;;8.90;8.10;;;;;;;;;;4973256;28;20047;-76
2022/12/23 10:06:37;;;;;;;8.60;8.00;;;;;;;;;;4968727;28;20045;-76
2022/12/23 10:09:06;;;;;;;8.02;7.43;;;;;;;;;;4966889;28;20034;-76
2022/12/23 10:11:39;;;;;;;8.02;7.53;;;;;;;;;;4972392;28;20478;-75
2022/12/23 10:14:28;;;;;;;7.93;7.18;;;;;;;;;;4973554;28;20037;-75
2022/12/23 10:17:01;;;;;;;8.02;7.53;;;;;;;;;;4973580;28;20505;-76
2022/12/23 10:19:32;;;;;;;7.70;7.13;;;;;;;;;;4970798;28;20042;-76
2022/12/23 10:22:03;;;;;;;7.75;7.25;;;;;;;;;;4977899;28;20129;-76
2022/12/23 10:24:37;;;;;;;8.02;7.43;;;;;;;;;;4968785;28;20043;-76
2022/12/23 10:27:23;;;;;;;8.00;7.40;;;;;;;;;;4972861;28;20046;-76
2022/12/23 10:29:49;;;;;;;7.57;6.97;;;;;;;;;;4975289;28;20031;-77
2022/12/23 10:32:33;;;;;;;7.57;7.00;;;;;;;;;;4973773;28;20042;-76
2022/12/23 10:35:27;;;;;;;7.53;6.93;;;;;;;;;;4966929;28;20033;-77
2022/12/23 10:38:12;;;;;;;7.65;6.88;;;;;;;;;;4969491;28;20500;-76
2022/12/23 10:40:55;;;;;;;7.30;6.90;;;;;;;;;;4966938;28;20074;-77
2022/12/23 10:44:19;;;;;;;8.00;7.55;;;;;;;;;;4969353;28;20495;-79
2022/12/23 10:47:09;;;;;;;8.48;7.90;;;;;;;;;;4964654;28;20094;-78
2022/12/23 10:50:20;;;;;;;7.82;7.32;;;;;;;;;;4985882;28;20062;-78
2022/12/23 10:52:47;;;;;;;7.50;7.10;;;;;;;;;;4973743;28;20034;-76
2022/12/23 10:55:23;;;;;;;7.35;6.95;;;;;;;;;;4966377;28;20042;-75
2022/12/23 10:57:50;;;;;;;8.13;7.63;;;;;;;;;;4974930;28;20053;-77
2022/12/23 11:00:20;;;;;;;8.15;7.65;;;;;;;;;;4980593;28;20063;-77
2022/12/23 11:03:06;;;;;;;8.80;8.30;;;;;;;;;;4968608;28;20057;-77
2022/12/23 11:05:33;;;;;;;11.32;10.20;;;;;;;;;;4967104;28;20048;-77
2022/12/23 11:07:59;;;;;;;14.93;13.43;;;;;;;;;;4970545;28;20113;-76
2022/12/23 11:10:31;;;;;;;10.43;9.50;;;;;;;;;;4968846;28;20041;-76
2022/12/23 11:12:57;;;;;;;10.15;9.13;;;;;;;;;;4962661;28;20109;-76
2022/12/23 11:15:39;;;;;;;9.75;9.05;;;;;;;;;;4964578;28;20117;-77
2022/12/23 11:18:11;;;;;;;10.23;9.32;;;;;;;;;;4970298;28;20034;-76
2022/12/23 11:20:39;;;;;;;10.13;9.32;;;;;;;;;;4964971;28;20243;-76
2022/12/23 11:23:20;;;;;;;10.02;9.23;;;;;;;;;;4972632;28;20043;-77
2022/12/23 11:25:46;;;;;;;10.38;9.43;;;;;;;;;;4969527;28;20045;-77
2022/12/23 11:28:13;;;;;;;10.70;9.60;;;;;;;;;;4967561;28;20050;-77
2022/12/23 11:31:04;;;;;;;10.13;9.23;;;;;;;;;;4961850;28;20027;-77
2022/12/23 11:33:36;;;;;;;9.52;8.73;;;;;;;;;;4967320;28;20043;-76
2022/12/23 11:36:11;;;;;;;8.00;7.50;;;;;;;;;;4964764;28;20138;-77
2022/12/23 11:39:05;;;;;;;8.80;8.20;;;;;;;;;;4965986;28;20105;-77
2022/12/23 11:41:49;;;;;;;8.98;8.38;;;;;;;;;;4966315;28;20434;-76
2022/12/23 11:44:27;;;;;;;9.07;8.38;;;;;;;;;;4964984;28;20039;-76
2022/12/23 11:46:53;;;;;;;9.30;8.60;;;;;;;;;;4970272;28;20039;-77
2022/12/23 11:49:18;;;;;;;9.35;8.57;;;;;;;;;;4959665;28;20046;-77
2022/12/23 11:51:47;;;;;;;9.40;8.63;;;;;;;;;;4962880;28;20104;-76
2022/12/23 11:54:19;;;;;;;18.77;12.82;;;;;;;;;;4966235;28;20035;-76
2022/12/23 11:56:50;;;;;;;10.48;9.50;;;;;;;;;;4967099;28;20105;-76
2022/12/23 11:59:27;;;;;;;10.00;9.27;;;;;;;;;;4970888;28;20045;-76
2022/12/23 12:01:55;;;;;;;9.85;9.15;;;;;;;;;;4970419;28;20034;-75
2022/12/23 12:04:24;;;;;;;9.23;8.63;;;;;;;;;;4970378;28;20046;-75
2022/12/23 12:06:50;;;;;;;8.90;8.30;;;;;;;;;;4970684;28;20394;-75
2022/12/23 12:09:16;;;;;;;8.80;8.20;;;;;;;;;;4966001;28;20136;-76
2022/12/23 12:11:57;;;;;;;8.73;8.15;;;;;;;;;;4969779;28;20101;-76
2022/12/23 12:14:36;;;;;;;8.88;8.27;;;;;;;;;;4976691;28;20462;-75
2022/12/23 12:17:08;;;;;;;;;;;;;;;;;;4961805;28;20121;-76
2022/12/23 12:19:49;;;;;;;8.85;8.32;;;;;;;;;;4973173;28;20106;-75
2022/12/23 12:22:35;;;;;;;9.07;8.52;;;;;;;;;;4967858;28;20490;-75
2022/12/23 12:25:13;;;;;;;8.90;8.20;;;;;;;;;;4974221;28;20070;-75
2022/12/23 12:27:41;;;;;;;8.68;8.10;;;;;;;;;;4965326;28;20038;-76
2022/12/23 12:30:14;;;;;;;8.20;7.65;;;;;;;;;;4970371;28;20039;-74
2022/12/23 12:32:49;;;;;;;8.88;8.20;;;;;;;;;;4977250;28;20058;-76
2022/12/23 12:35:24;;;;;;;8.13;7.63;;;;;;;;;;4967668;28;20042;-75
2022/12/23 12:38:23;;;;;;;9.15;8.45;;;;;;;;;;4965743;28;20085;-75
2022/12/23 12:41:06;;;;;;;10.48;9.68;;;;;;;;;;4974913;28;20121;-74
2022/12/23 12:43:37;;;;;;;10.57;9.65;;;;;;;;;;4969994;28;20126;-75
2022/12/23 12:46:31;;;;;;;9.77;9.07;;;;;;;;;;4963291;28;20038;-75
2022/12/23 12:49:28;;;;;;;9.27;8.68;;;;;;;;;;4964138;28;20123;-75
2022/12/23 12:52:02;;;;;;;8.07;7.47;;;;;;;;;;4968908;28;20074;-75
2022/12/23 12:54:36;;;;;;;8.95;8.25;;;;;;;;;;4964093;28;20047;-75
2022/12/23 12:57:02;;;;;;;8.63;8.02;;;;;;;;;;4965200;28;20109;-75
2022/12/23 12:59:34;;;;;;;9.13;8.63;;;;;;;;;;4971630;28;20133;-76
2022/12/23 13:02:27;;;;;;;8.90;8.30;;;;;;;;;;4974101;28;20042;-76
2022/12/23 13:05:22;;;;;;;10.63;9.50;;;;;;;;;;4977985;28;20538;-74
2022/12/23 13:08:11;;;;;;;11.43;9.48;;;;;;;;;;4968348;28;20050;-74
2022/12/23 13:10:53;;;;;;;12.20;11.10;;;;;;;;;;4974401;28;20677;-73
2022/12/23 13:13:27;;;;;;;10.23;9.32;;;;;;;;;;4976127;28;20075;-73
2022/12/23 13:16:07;;;;;;;9.77;8.88;;;;;;;;;;4968848;28;20128;-73
2022/12/23 13:18:49;;;;;;;10.40;9.57;;;;;;;;;;4971054;28;20046;-73
2022/12/23 13:21:39;;;;;;;10.13;9.20;;;;;;;;;;4972047;28;20039;-73
2022/12/23 13:24:51;;;;;;;10.02;9.23;;;;;;;;;;4972660;28;20506;-74
2022/12/23 13:27:32;;;;;;;9.27;8.57;;;;;;;;;;4952870;28;20043;-74
2022/12/23 13:30:12;;;;;;;9.55;8.75;;;;;;;;;;4947266;28;20502;-74
2022/12/23 13:32:43;;;;;;;9.57;8.75;;;;;;;;;;4949310;28;20043;-73
2022/12/23 13:35:33;;;;;;;8.30;7.80;;;;;;;;;;4949398;28;20054;-73
2022/12/23 13:38:14;;;;;;;8.77;8.13;;;;;;;;;;4929830;29;20105;-73
2022/12/23 13:41:38;;;;;;;10.48;7.65;;;;;;;;;;4952618;28;20470;-74
2022/12/23 13:44:08;;;;;;;8.60;7.90;;;;;;;;;;4859133;29;20057;-73
2022/12/23 13:46:52;;;;;;;8.73;8.13;;;;;;;;;;4862814;29;20173;-73
2022/12/23 13:49:27;;;;;;;8.02;7.53;;;;;;;;;;4857680;29;20534;-73
2022/12/23 13:52:12;;;;;;;8.25;7.68;;;;;;;;;;4855558;29;20051;-73
2022/12/23 13:55:01;;;;;;;7.70;7.20;;;;;;;;;;4862483;29;20049;-73
2022/12/23 13:57:33;;;;;;;7.93;7.32;;;;;;;;;;4859259;29;20160;-73
2022/12/23 14:00:23;;;;;;;8.65;7.95;;;;;;;;;;4861878;29;20648;-73
2022/12/23 14:03:01;;;;;;;7.93;7.40;;;;;;;;;;4895478;29;20464;-73
2022/12/23 14:05:49;;;;;;;8.63;8.02;;;;;;;;;;4892598;29;20111;-73
2022/12/23 14:08:17;;;;;;;8.40;7.80;;;;;;;;;;4899316;29;20556;-74
2022/12/23 14:11:09;;;;;;;8.30;7.70;;;;;;;;;;4896163;29;20040;-73
2022/12/23 14:13:40;;;;;;;8.20;7.70;;;;;;;;;;4859994;29;20081;-73
2022/12/23 14:16:09;;;;;;;8.10;7.57;;;;;;;;;;4931365;29;20693;-73
2022/12/23 14:19:03;;;;;;;8.47;7.80;;;;;;;;;;4919602;29;20092;-74
2022/12/23 14:21:54;;;;;;;8.18;7.68;;;;;;;;;;4933875;29;20050;-73
2022/12/23 14:24:34;;;;;;;7.55;7.10;;;;;;;;;;4933096;29;20051;-74
2022/12/23 14:27:33;;;;;;;7.43;7.03;;;;;;;;;;4932195;29;20043;-73
2022/12/23 14:30:11;;;;;;;8.00;7.45;;;;;;;;;;4933615;29;20051;-73
2022/12/23 14:32:47;;;;;;;7.90;7.30;;;;;;;;;;4933223;29;20063;-73
2022/12/23 14:35:18;;;;;;;7.53;7.13;;;;;;;;;;4931456;29;20048;-73
2022/12/23 14:38:15;;;;;;;8.13;7.53;;;;;;;;;;4929835;29;20052;-73
2022/12/23 14:40:41;;;;;;;7.80;7.28;;;;;;;;;;4930686;29;20042;-73
2022/12/23 14:43:21;;;;;;;8.02;7.13;;;;;;;;;;4934773;29;20173;-73
2022/12/23 14:45:54;;;;;;;8.10;7.30;;;;;;;;;;4925523;29;20048;-73
2022/12/23 14:48:34;;;;;;;8.48;7.80;;;;;;;;;;4933045;29;20046;-73
2022/12/23 14:51:12;;;;;;;7.90;7.40;;;;;;;;;;4956013;28;21574;-73
2022/12/23 14:54:01;;;;;;;7.70;7.10;;;;;;;;;;4970581;28;20502;-73
2022/12/23 14:56:39;;;;;;;8.70;8.07;;;;;;;;;;4971033;28;20046;-73
2022/12/23 14:59:20;;;;;;;7.40;7.00;;;;;;;;;;4965819;28;20126;-73
2022/12/23 15:01:48;;;;;;;7.75;7.28;;;;;;;;;;4974595;28;20049;-73
2022/12/23 15:04:24;;;;;;;7.78;7.38;;;;;;;;;;4977360;28;20045;-73
2022/12/23 15:06:54;;;;;;;8.05;7.55;;;;;;;;;;4968755;28;20034;-73
2022/12/23 15:09:25;;;;;;;8.25;7.57;;;;;;;;;;4972954;28;20110;-73
2022/12/23 15:11:53;;;;;;;8.07;7.57;;;;;;;;;;4978471;28;20030;-74
2022/12/23 15:14:37;;;;;;;7.78;7.10;;;;;;;;;;4969422;28;20034;-73
2022/12/23 15:17:26;;;;;;;8.02;7.53;;;;;;;;;;4971247;28;20034;-75
2022/12/23 15:19:52;;;;;;;7.93;7.32;;;;;;;;;;4972945;28;20080;-73
2022/12/23 15:22:18;;;;;;;8.05;7.35;;;;;;;;;;4977828;28;20058;-74
2022/12/23 15:24:44;;;;;;;8.60;8.00;;;;;;;;;;4972113;28;20494;-74
2022/12/23 15:27:16;;;;;;;9.43;8.73;;;;;;;;;;4971331;28;20030;-73
2022/12/23 15:29:46;;;;;;;8.90;8.27;;;;;;;;;;4974891;28;20036;-75
2022/12/23 15:32:12;;;;;;;9.70;9.00;;;;;;;;;;4980048;28;20038;-75
2022/12/23 15:34:38;;;;;;;9.55;8.70;;;;;;;;;;4970463;28;20125;-74
2022/12/23 15:37:09;;;;;;;8.63;8.13;;;;;;;;;;4972814;28;20034;-75
2022/12/23 15:39:38;;;;;;;9.45;8.80;;;;;;;;;;4975993;28;20041;-75